Time;durP1;ratioP1;P1;durP2;ratioP2;P2;SDS_P1;SDS_P2;PMS_P1;PMS_P2;Temp;Humidity;BMP_temperature;BMP_pressure;BME280_temperature;BME280_humidity;BME280_pressure;Samples;Min_cycle;Max_cycle;Signal;HPM_P1;HPM_P2
2022/12/10 00:01:24;;;;;;;101.80;45.63;;;-0.10;99.90;;;;;;5162212;22;20665;-80
2022/12/10 00:06:20;;;;;;;110.40;47.97;;;-0.10;99.90;;;;;;5057514;28;20208;-81
2022/12/10 00:08:46;;;;;;;105.97;49.38;;;0.00;99.90;;;;;;5060629;28;20220;-81
2022/12/10 00:11:14;;;;;;;106.23;48.13;;;-0.10;99.90;;;;;;5073438;28;20699;-81
2022/12/10 00:13:40;;;;;;;105.00;49.13;;;-0.10;99.90;;;;;;5080628;28;20405;-81
2022/12/10 00:16:11;;;;;;;115.90;53.67;;;-0.10;99.90;;;;;;5080502;28;20160;-81
2022/12/10 00:18:37;;;;;;;102.15;43.05;;;-0.20;99.90;;;;;;5080563;28;20164;-81
2022/12/10 00:21:04;;;;;;;103.53;47.35;;;-0.20;99.90;;;;;;5080213;28;20561;-81
2022/12/10 00:23:32;;;;;;;106.25;50.83;;;-0.20;99.90;;;;;;5080413;28;20650;-81
2022/12/10 00:26:09;;;;;;;109.55;47.83;;;-0.30;99.90;;;;;;5062015;28;20540;-81
2022/12/10 00:28:35;;;;;;;108.13;51.75;;;-0.20;99.90;;;;;;5079819;28;20149;-81
2022/12/10 00:31:09;;;;;;;103.47;43.80;;;-0.30;99.90;;;;;;5061267;28;20191;-80
2022/12/10 00:33:35;;;;;;;106.50;45.05;;;-0.30;99.90;;;;;;5079545;28;20156;-81
2022/12/10 00:36:09;;;;;;;104.20;50.50;;;-0.40;99.90;;;;;;5079913;28;20667;-80
2022/12/10 00:38:35;;;;;;;103.72;45.45;;;-0.30;99.90;;;;;;5079596;28;20422;-80
2022/12/10 00:41:01;;;;;;;105.13;46.03;;;-0.40;99.90;;;;;;5079772;28;20233;-80
2022/12/10 00:43:27;;;;;;;112.80;50.22;;;-0.50;99.90;;;;;;5079521;28;20163;-80
2022/12/10 00:45:53;;;;;;;106.53;48.50;;;-0.40;99.90;;;;;;5079212;28;20533;-80
2022/12/10 00:48:20;;;;;;;104.63;46.28;;;-0.50;99.90;;;;;;5078850;28;20239;-80
2022/12/10 00:50:59;;;;;;;104.47;49.63;;;-0.50;99.90;;;;;;5079545;28;20183;-80
2022/12/10 00:53:26;;;;;;;108.32;49.10;;;-0.50;99.90;;;;;;5079343;28;20148;-80
2022/12/10 00:55:52;;;;;;;109.70;46.45;;;-0.50;99.90;;;;;;5079121;28;20255;-80
2022/12/10 00:58:18;;;;;;;102.35;41.08;;;-0.50;99.90;;;;;;5079446;28;20241;-80
2022/12/10 01:00:44;;;;;;;99.78;39.53;;;-0.60;99.90;;;;;;5078862;28;20611;-80
2022/12/10 01:03:10;;;;;;;108.90;42.47;;;-0.60;99.90;;;;;;5080366;28;20164;-80
2022/12/10 01:05:35;;;;;;;105.13;39.30;;;-0.60;99.90;;;;;;5079577;28;20180;-80
2022/12/10 01:08:01;;;;;;;109.80;42.50;;;-0.70;99.90;;;;;;5078762;28;20194;-80
2022/12/10 01:10:27;;;;;;;103.97;44.03;;;-0.70;99.90;;;;;;5079069;28;20187;-80
2022/12/10 01:12:52;;;;;;;105.37;46.80;;;-0.60;99.90;;;;;;5078549;28;20168;-80
2022/12/10 01:15:21;;;;;;;105.27;42.77;;;-0.70;99.90;;;;;;5079151;28;20183;-80
2022/12/10 01:17:47;;;;;;;103.72;40.95;;;-0.70;99.90;;;;;;5078499;28;20698;-80
2022/12/10 01:20:12;;;;;;;101.20;41.40;;;-0.70;99.90;;;;;;5078083;28;20184;-80
2022/12/10 01:22:38;;;;;;;100.60;40.83;;;-0.70;99.90;;;;;;5078437;28;20168;-80
2022/12/10 01:25:04;;;;;;;106.47;41.87;;;-0.70;99.90;;;;;;5060682;28;20182;-80
2022/12/10 01:27:30;;;;;;;107.45;45.53;;;-0.70;99.90;;;;;;5078899;28;20410;-80
2022/12/10 01:29:56;;;;;;;102.17;45.00;;;-0.70;99.90;;;;;;5078665;28;20221;-80
2022/12/10 01:32:21;;;;;;;97.03;37.37;;;-0.80;99.90;;;;;;5078434;28;20255;-80
2022/12/10 01:34:47;;;;;;;108.67;40.87;;;-0.80;99.90;;;;;;5078573;28;20272;-80
2022/12/10 01:37:13;;;;;;;101.97;39.47;;;-0.80;99.90;;;;;;5078425;28;20164;-80
2022/12/10 01:39:39;;;;;;;107.83;42.17;;;-0.80;99.90;;;;;;5078460;28;20167;-80
2022/12/10 01:42:05;;;;;;;102.10;40.90;;;-0.80;99.90;;;;;;5060414;28;20640;-80
2022/12/10 01:44:30;;;;;;;104.55;43.67;;;-0.80;99.90;;;;;;5077969;28;20410;-80
2022/12/10 01:46:59;;;;;;;102.20;38.33;;;-0.80;99.90;;;;;;5077992;28;20175;-80
2022/12/10 01:49:38;;;;;;;99.82;37.80;;;-0.90;99.90;;;;;;5077982;28;20174;-80
2022/12/10 01:52:07;;;;;;;104.53;41.50;;;-0.90;99.90;;;;;;5078029;28;20187;-80
2022/12/10 01:54:39;;;;;;;105.05;42.60;;;-0.90;99.90;;;;;;5077142;28;20238;-80
2022/12/10 01:57:08;;;;;;;102.85;39.60;;;-0.90;99.90;;;;;;5077967;28;20147;-80
2022/12/10 01:59:37;;;;;;;103.43;38.45;;;-0.90;99.90;;;;;;5077421;28;20163;-80
2022/12/10 02:02:40;;;;;;;106.57;37.90;;;-1.00;99.90;;;;;;5077757;28;20191;-80
2022/12/10 02:05:18;;;;;;;107.80;38.15;;;-1.00;99.90;;;;;;5060030;28;20256;-80
2022/12/10 02:08:10;;;;;;;105.70;42.22;;;-1.00;99.90;;;;;;5077969;28;20609;-80
2022/12/10 02:11:03;;;;;;;103.45;42.22;;;-1.00;99.90;;;;;;5078044;28;20202;-79
2022/12/10 02:13:43;;;;;;;99.82;39.30;;;-1.00;99.90;;;;;;5060832;28;20156;-79
2022/12/10 02:16:20;;;;;;;98.47;41.50;;;-0.90;99.90;;;;;;5077576;28;20194;-80
2022/12/10 02:19:03;;;;;;;98.28;37.97;;;-1.00;99.90;;;;;;5078042;28;20529;-79
2022/12/10 02:21:40;;;;;;;101.18;39.17;;;-1.00;99.90;;;;;;5077550;28;20180;-79
2022/12/10 02:24:11;;;;;;;104.13;41.70;;;-1.10;99.90;;;;;;5077144;28;20191;-79
2022/12/10 02:26:46;;;;;;;101.68;38.42;;;-1.10;99.90;;;;;;5058938;28;20214;-79
2022/12/10 02:29:13;;;;;;;105.90;42.13;;;-1.00;99.90;;;;;;5077583;28;20170;-79
2022/12/10 02:31:44;;;;;;;101.95;40.20;;;-1.00;99.90;;;;;;5059040;28;20187;-79
2022/12/10 02:34:10;;;;;;;104.38;39.88;;;-1.10;99.90;;;;;;5058771;28;20152;-79
2022/12/10 02:36:39;;;;;;;103.72;42.25;;;-1.10;99.90;;;;;;5076753;28;20695;-79
2022/12/10 02:39:09;;;;;;;99.63;42.30;;;-1.00;99.90;;;;;;5076801;28;20171;-78
2022/12/10 02:41:40;;;;;;;101.70;39.65;;;-1.20;99.90;;;;;;5076922;28;20278;-79
2022/12/10 02:44:10;;;;;;;104.50;40.20;;;-1.20;99.90;;;;;;5058405;28;20188;-79
2022/12/10 02:46:38;;;;;;;99.60;39.83;;;-1.20;99.90;;;;;;5076616;28;20174;-79
2022/12/10 02:49:06;;;;;;;111.05;47.72;;;-1.20;99.90;;;;;;5076676;28;20595;-79
2022/12/10 02:51:31;;;;;;;106.75;41.83;;;-1.20;99.90;;;;;;5076958;28;20188;-79
2022/12/10 02:54:02;;;;;;;102.50;40.50;;;-1.20;99.90;;;;;;5076778;28;20221;-79
2022/12/10 02:59:14;;;;;;;104.60;43.25;;;-1.20;99.90;;;;;;5266104;22;20224;-79
2022/12/10 03:01:53;;;;;;;100.97;40.08;;;-1.20;99.90;;;;;;5071437;28;20187;-79
2022/12/10 03:04:37;;;;;;;99.72;40.70;;;-1.10;99.90;;;;;;5076817;28;20592;-79
2022/12/10 03:07:08;;;;;;;105.53;40.30;;;-1.10;99.90;;;;;;5076668;28;20218;-79
2022/12/10 03:09:51;;;;;;;99.35;41.63;;;-1.10;99.90;;;;;;5076501;28;20148;-79
2022/12/10 03:12:28;;;;;;;101.18;39.40;;;-1.10;99.90;;;;;;5076573;28;20180;-79
2022/12/10 03:14:59;;;;;;;104.50;39.80;;;-1.10;99.90;;;;;;5075495;28;20213;-79
2022/12/10 03:17:27;;;;;;;103.22;38.03;;;-0.90;99.90;;;;;;5076825;28;20156;-79
2022/12/10 03:19:54;;;;;;;113.65;42.30;;;-0.90;99.90;;;;;;5076508;28;20164;-79
2022/12/10 03:22:20;;;;;;;104.00;42.95;;;-0.90;99.90;;;;;;5076615;28;20172;-79
2022/12/10 03:24:47;;;;;;;99.43;35.75;;;-0.90;99.90;;;;;;5076545;28;20191;-79
2022/12/10 03:27:15;;;;;;;99.75;38.15;;;-0.80;99.90;;;;;;5076638;28;20278;-79
2022/12/10 03:30:07;;;;;;;107.35;39.25;;;-0.80;99.90;;;;;;5076285;28;20167;-79
2022/12/10 03:32:34;;;;;;;104.90;37.22;;;-0.70;99.90;;;;;;5073540;28;20167;-79
2022/12/10 03:35:01;;;;;;;110.65;38.85;;;-0.70;99.90;;;;;;5076262;28;20172;-79
2022/12/10 03:37:28;;;;;;;98.90;35.55;;;-0.60;99.90;;;;;;5076029;28;20164;-79
2022/12/10 03:39:55;;;;;;;106.75;37.33;;;-0.60;99.90;;;;;;5074828;28;20179;-79
2022/12/10 03:42:21;;;;;;;107.80;41.45;;;-0.60;99.90;;;;;;5078853;28;20168;-79
2022/12/10 03:44:50;;;;;;;100.70;39.67;;;-0.50;99.90;;;;;;5077377;28;20709;-79
2022/12/10 03:47:16;;;;;;;104.97;44.80;;;-0.40;99.90;;;;;;5076705;28;20156;-79
2022/12/10 03:49:43;;;;;;;100.47;41.57;;;-0.40;99.90;;;;;;5075695;28;20294;-79
2022/12/10 03:52:09;;;;;;;103.57;41.80;;;-0.40;99.90;;;;;;5075677;28;20465;-79
2022/12/10 03:54:35;;;;;;;105.43;34.03;;;-0.40;99.90;;;;;;5075731;28;20168;-79
2022/12/10 03:57:00;;;;;;;104.77;36.10;;;-0.40;99.90;;;;;;5074177;28;20168;-79
2022/12/10 03:59:26;;;;;;;116.87;37.07;;;-0.40;99.90;;;;;;5075578;28;20907;-79
2022/12/10 04:01:52;;;;;;;103.03;33.57;;;-0.40;99.90;;;;;;5075986;28;20188;-79
2022/12/10 04:04:17;;;;;;;102.00;32.53;;;-0.40;99.90;;;;;;5075294;28;20193;-79
2022/12/10 04:06:46;;;;;;;105.40;36.30;;;-0.30;99.90;;;;;;5075820;28;20164;-79
2022/12/10 04:09:14;;;;;;;115.20;36.90;;;-0.30;99.90;;;;;;5075917;28;20702;-79
2022/12/10 04:11:40;;;;;;;110.43;36.25;;;-0.30;99.90;;;;;;5073933;28;20553;-79
2022/12/10 04:16:51;;;;;;;108.40;36.92;;;-0.20;99.90;;;;;;5075183;28;20674;-79
2022/12/10 04:19:19;;;;;;;98.10;35.37;;;-0.20;99.90;;;;;;5078131;28;20263;-79
2022/12/10 04:27:21;;;;;;;107.40;34.58;;;-0.10;99.90;;;;;;5079409;28;20675;-79
2022/12/10 04:29:46;;;;;;;103.65;36.65;;;-0.10;99.90;;;;;;5078961;28;20665;-79
2022/12/10 04:32:12;;;;;;;105.50;33.90;;;0.00;99.90;;;;;;5079169;28;20199;-79
2022/12/10 04:34:38;;;;;;;103.87;33.33;;;0.00;99.90;;;;;;5079468;28;20180;-79
2022/12/10 04:37:05;;;;;;;104.93;32.83;;;0.00;99.90;;;;;;5079664;28;20417;-79
2022/12/10 04:39:31;;;;;;;108.38;38.03;;;0.10;99.90;;;;;;5078156;28;20551;-79
2022/12/10 04:41:57;;;;;;;108.93;36.25;;;0.10;99.90;;;;;;5079219;28;20188;-79
2022/12/10 04:44:23;;;;;;;109.95;41.00;;;0.10;99.90;;;;;;5079527;28;20198;-79
2022/12/10 04:46:48;;;;;;;106.57;36.20;;;0.10;99.90;;;;;;5077972;28;20641;-79
2022/12/10 04:49:15;;;;;;;100.80;35.43;;;0.20;99.90;;;;;;5079389;28;20163;-79
2022/12/10 04:51:41;;;;;;;104.78;36.50;;;0.20;99.90;;;;;;5077856;28;20421;-79
2022/12/10 04:54:07;;;;;;;105.90;33.08;;;0.20;99.90;;;;;;5078841;28;20160;-79
2022/12/10 04:56:33;;;;;;;100.53;33.03;;;0.10;99.90;;;;;;5078145;28;20176;-79
2022/12/10 04:58:59;;;;;;;101.18;33.03;;;0.20;99.90;;;;;;5078201;28;20168;-79
2022/12/10 05:01:26;;;;;;;102.50;38.33;;;0.20;99.90;;;;;;5078695;28;20180;-79
2022/12/10 05:03:52;;;;;;;102.88;34.45;;;0.20;99.90;;;;;;5078359;28;20605;-79
2022/12/10 05:06:19;;;;;;;109.38;41.30;;;0.20;99.90;;;;;;5077393;28;20526;-79
2022/12/10 05:08:45;;;;;;;108.38;37.08;;;0.20;99.90;;;;;;5078581;28;20167;-79
2022/12/10 05:11:14;;;;;;;109.75;39.15;;;0.20;99.90;;;;;;5147116;22;20227;-77
2022/12/10 05:13:41;;;;;;;108.13;37.55;;;0.20;99.90;;;;;;5073855;28;20167;-77
2022/12/10 05:16:10;;;;;;;102.60;34.75;;;0.20;99.90;;;;;;5073734;28;20221;-77
2022/12/10 05:18:36;;;;;;;104.13;35.00;;;0.20;99.90;;;;;;5075111;28;20171;-77
2022/12/10 05:21:04;;;;;;;102.38;34.33;;;0.20;99.90;;;;;;5073843;28;20226;-77
2022/12/10 05:23:30;;;;;;;106.43;36.47;;;0.30;99.90;;;;;;5075042;28;20160;-77
2022/12/10 05:26:18;;;;;;;111.80;37.17;;;0.30;99.90;;;;;;5075108;28;20241;-78
2022/12/10 05:28:50;;;;;;;108.43;35.88;;;0.30;99.90;;;;;;5074516;28;20555;-77
2022/12/10 05:31:22;;;;;;;102.00;32.95;;;0.30;99.90;;;;;;5074172;28;20187;-77
2022/12/10 05:33:48;;;;;;;103.90;37.25;;;0.30;99.90;;;;;;5074744;28;20148;-77
2022/12/10 05:36:17;;;;;;;110.85;34.83;;;0.30;99.90;;;;;;5073490;28;20541;-77
2022/12/10 05:38:44;;;;;;;109.57;38.17;;;0.30;99.90;;;;;;5074774;28;20171;-78
2022/12/10 05:41:15;;;;;;;109.10;39.85;;;0.30;99.90;;;;;;5074531;28;20279;-77
2022/12/10 05:43:43;;;;;;;107.45;35.60;;;0.30;99.90;;;;;;5074348;28;20614;-77
2022/12/10 05:46:14;;;;;;;102.38;34.42;;;0.40;99.90;;;;;;5074404;28;20209;-77
2022/12/10 05:48:40;;;;;;;106.15;35.60;;;0.40;99.90;;;;;;5072994;28;20195;-77
2022/12/10 05:51:09;;;;;;;108.70;35.77;;;0.40;99.90;;;;;;5072861;28;20241;-78
2022/12/10 05:53:34;;;;;;;103.72;33.50;;;0.50;99.90;;;;;;5074185;28;20490;-77
2022/12/10 05:56:07;;;;;;;107.77;36.60;;;0.50;99.90;;;;;;5074204;28;20246;-77
2022/12/10 05:58:34;;;;;;;107.78;37.13;;;0.60;99.90;;;;;;5074151;28;20748;-77
2022/12/10 06:01:05;;;;;;;104.18;35.70;;;0.50;99.90;;;;;;5073907;28;20180;-77
2022/12/10 06:03:30;;;;;;;113.38;38.53;;;0.50;99.90;;;;;;5074143;28;20503;-77
2022/12/10 06:05:56;;;;;;;110.67;33.70;;;0.40;99.90;;;;;;5073819;28;20199;-77
2022/12/10 06:08:22;;;;;;;106.13;36.13;;;0.40;99.90;;;;;;5072700;28;20168;-77
2022/12/10 06:10:47;;;;;;;102.80;34.30;;;0.50;99.90;;;;;;5073836;28;20214;-77
2022/12/10 06:13:13;;;;;;;105.97;37.23;;;0.50;99.90;;;;;;5072545;28;20411;-77
2022/12/10 06:15:41;;;;;;;117.57;37.83;;;0.50;99.90;;;;;;5072465;28;20168;-77
2022/12/10 06:18:07;;;;;;;111.72;36.05;;;0.40;99.90;;;;;;5073813;28;20229;-77
2022/12/10 06:20:33;;;;;;;112.93;36.17;;;0.40;99.90;;;;;;5073893;28;20191;-77
2022/12/10 06:22:59;;;;;;;106.97;36.47;;;0.50;99.90;;;;;;5073661;28;20248;-77
2022/12/10 06:25:26;;;;;;;110.57;36.87;;;0.50;99.90;;;;;;5073978;28;20598;-77
2022/12/10 06:27:52;;;;;;;103.88;34.03;;;0.40;99.90;;;;;;5072308;28;20530;-77
2022/12/10 06:30:17;;;;;;;108.67;38.83;;;0.40;99.90;;;;;;5073617;28;20184;-77
2022/12/10 06:32:43;;;;;;;102.77;32.90;;;0.40;99.90;;;;;;5073455;28;20410;-77
2022/12/10 06:35:09;;;;;;;104.87;35.50;;;0.40;99.90;;;;;;5073800;28;20172;-77
2022/12/10 06:37:35;;;;;;;108.20;33.83;;;0.40;99.90;;;;;;5073536;28;20216;-77
2022/12/10 06:40:01;;;;;;;106.77;33.77;;;0.40;99.90;;;;;;5072110;28;20724;-77
2022/12/10 06:42:27;;;;;;;105.33;36.60;;;0.30;99.90;;;;;;5073179;28;20241;-77
2022/12/10 06:44:52;;;;;;;104.27;33.77;;;0.40;99.90;;;;;;5073551;28;20446;-77
2022/12/10 06:47:18;;;;;;;104.03;32.67;;;0.40;99.90;;;;;;5073831;28;20163;-77
2022/12/10 06:49:44;;;;;;;109.30;36.43;;;0.40;99.90;;;;;;5073396;28;20167;-77
2022/12/10 06:52:09;;;;;;;101.30;35.00;;;0.40;99.90;;;;;;5072164;28;20168;-77
2022/12/10 06:54:35;;;;;;;103.83;35.23;;;0.40;99.90;;;;;;5072458;28;20186;-77
2022/12/10 06:57:01;;;;;;;110.23;35.03;;;0.50;99.90;;;;;;5072329;28;20164;-77
2022/12/10 06:59:26;;;;;;;100.53;32.20;;;0.40;99.90;;;;;;5073284;28;20252;-77
2022/12/10 07:01:52;;;;;;;101.83;31.40;;;0.30;99.90;;;;;;5073338;28;20190;-78
2022/12/10 07:04:18;;;;;;;108.40;36.20;;;0.40;99.90;;;;;;5072129;28;20213;-80
2022/12/10 07:06:46;;;;;;;102.83;35.50;;;0.40;99.90;;;;;;5073429;28;20164;-77
2022/12/10 07:09:12;;;;;;;109.97;35.92;;;0.40;99.90;;;;;;5073369;28;20540;-77
2022/12/10 07:11:38;;;;;;;102.77;31.63;;;0.50;99.90;;;;;;5072138;28;20196;-80
2022/12/10 07:14:04;;;;;;;108.90;33.53;;;0.40;99.90;;;;;;5073247;28;20774;-77
2022/12/10 07:16:31;;;;;;;109.60;35.33;;;0.30;99.90;;;;;;5073139;28;20194;-77
2022/12/10 07:18:59;;;;;;;103.47;31.30;;;0.40;99.90;;;;;;5073265;28;20216;-77
2022/12/10 07:21:31;;;;;;;104.15;32.72;;;0.40;99.90;;;;;;5073146;28;20275;-77
2022/12/10 07:23:59;;;;;;;109.28;32.50;;;0.40;99.90;;;;;;5071756;28;20202;-77
2022/12/10 07:26:27;;;;;;;109.70;34.55;;;0.30;99.90;;;;;;5071827;28;20160;-77
2022/12/10 07:28:53;;;;;;;101.75;30.52;;;0.40;99.90;;;;;;5073111;28;20526;-77
2022/12/10 07:31:20;;;;;;;108.13;31.13;;;0.40;99.90;;;;;;5073160;28;20180;-77
2022/12/10 07:33:45;;;;;;;106.07;33.80;;;0.50;99.90;;;;;;5071585;28;20174;-77
2022/12/10 07:36:12;;;;;;;103.97;32.43;;;0.50;99.90;;;;;;5072858;28;20584;-77
2022/12/10 07:38:38;;;;;;;107.97;31.80;;;0.50;99.90;;;;;;5073056;28;20568;-77
2022/12/10 07:41:10;;;;;;;118.95;33.53;;;0.50;99.90;;;;;;5073454;28;20263;-77
2022/12/10 07:43:37;;;;;;;120.45;34.42;;;0.50;99.90;;;;;;5072810;28;20187;-77
2022/12/10 07:46:18;;;;;;;102.72;28.80;;;0.50;99.90;;;;;;5073269;28;20168;-77
2022/12/10 07:48:45;;;;;;;115.55;33.55;;;0.50;99.90;;;;;;5073065;28;20510;-77
2022/12/10 07:51:11;;;;;;;104.35;33.45;;;0.50;99.90;;;;;;5072613;28;20665;-77
2022/12/10 07:53:38;;;;;;;110.38;33.75;;;0.60;99.90;;;;;;5074506;28;20164;-77
2022/12/10 07:56:04;;;;;;;114.85;31.67;;;0.50;99.90;;;;;;5075135;28;20715;-77
2022/12/10 07:58:30;;;;;;;115.10;32.80;;;0.60;99.90;;;;;;5076646;28;20164;-77
2022/12/10 08:00:56;;;;;;;105.33;30.27;;;0.60;99.90;;;;;;5076337;28;20229;-77
2022/12/10 08:03:23;;;;;;;108.07;29.90;;;0.60;99.90;;;;;;5076251;28;20899;-77
2022/12/10 08:05:59;;;;;;;118.72;32.15;;;0.70;99.90;;;;;;5076188;28;20211;-77
2022/12/10 08:08:25;;;;;;;116.40;31.50;;;0.70;99.90;;;;;;5076883;28;20140;-77
2022/12/10 08:10:51;;;;;;;114.27;34.77;;;0.80;99.90;;;;;;5075985;28;20621;-77
2022/12/10 08:13:18;;;;;;;114.17;36.00;;;0.80;99.90;;;;;;5076024;28;20163;-77
2022/12/10 08:15:43;;;;;;;117.38;34.22;;;0.70;99.90;;;;;;5075208;28;20456;-77
2022/12/10 08:18:09;;;;;;;129.10;34.67;;;0.70;99.90;;;;;;5076874;28;20199;-78
2022/12/10 08:20:35;;;;;;;124.43;36.10;;;0.70;99.90;;;;;;5076521;28;20187;-78
2022/12/10 08:23:01;;;;;;;133.40;36.73;;;0.80;99.90;;;;;;5076593;28;20168;-78
2022/12/10 08:25:27;;;;;;;126.10;35.95;;;0.80;99.90;;;;;;5075123;28;20191;-78
2022/12/10 08:27:52;;;;;;;126.93;39.20;;;1.00;99.90;;;;;;5076458;28;20160;-78
2022/12/10 08:30:18;;;;;;;130.07;34.73;;;1.10;99.90;;;;;;5076702;28;20661;-78
2022/12/10 08:32:44;;;;;;;123.83;33.73;;;1.20;99.90;;;;;;5075019;28;20540;-78
2022/12/10 08:35:09;;;;;;;127.00;35.37;;;1.20;99.90;;;;;;5076479;28;20617;-78
2022/12/10 08:37:35;;;;;;;129.43;39.37;;;1.30;99.90;;;;;;5076527;28;20636;-78
2022/12/10 08:40:01;;;;;;;133.33;38.30;;;1.30;99.90;;;;;;5076064;28;20192;-78
2022/12/10 08:42:27;;;;;;;124.30;35.70;;;1.20;99.90;;;;;;5076287;28;20225;-78
2022/12/10 08:44:52;;;;;;;138.70;37.60;;;1.20;99.90;;;;;;5075986;28;20572;-78
2022/12/10 08:47:18;;;;;;;121.03;35.87;;;1.20;99.90;;;;;;5075821;28;20396;-77
2022/12/10 08:49:44;;;;;;;124.43;34.70;;;1.20;99.90;;;;;;5075950;28;20632;-77
2022/12/10 08:52:09;;;;;;;121.80;33.30;;;1.20;99.90;;;;;;5076087;28;20211;-78
2022/12/10 08:54:35;;;;;;;138.43;35.20;;;1.20;99.90;;;;;;5075794;28;20613;-77
2022/12/10 08:57:01;;;;;;;132.50;38.97;;;1.10;99.90;;;;;;5075732;28;20180;-78
2022/12/10 08:59:27;;;;;;;127.65;36.28;;;1.10;99.90;;;;;;5076329;28;20164;-77
2022/12/10 09:01:52;;;;;;;131.73;38.87;;;1.20;99.90;;;;;;5074297;28;20194;-77
2022/12/10 09:04:18;;;;;;;129.97;42.10;;;1.10;99.90;;;;;;5075454;28;20180;-78
2022/12/10 09:06:44;;;;;;;134.60;39.10;;;1.20;99.90;;;;;;5075735;28;20160;-78
2022/12/10 09:09:09;;;;;;;122.47;37.10;;;1.20;99.90;;;;;;5075696;28;20608;-77
2022/12/10 09:11:35;;;;;;;125.17;36.90;;;1.10;99.90;;;;;;5075570;28;20217;-78
2022/12/10 09:14:01;;;;;;;135.77;38.47;;;1.20;99.90;;;;;;5075703;28;20167;-77
2022/12/10 09:16:31;;;;;;;134.25;39.05;;;1.20;99.90;;;;;;5075381;28;20234;-77
2022/12/10 09:18:57;;;;;;;126.05;36.70;;;1.20;99.90;;;;;;5075400;28;20164;-77
2022/12/10 09:21:23;;;;;;;134.00;39.72;;;1.20;99.90;;;;;;5075242;28;20179;-78
2022/12/10 09:23:51;;;;;;;126.03;41.27;;;1.20;99.90;;;;;;5075091;28;20160;-78
2022/12/10 09:26:18;;;;;;;134.18;41.75;;;1.20;99.90;;;;;;5075281;28;20919;-77
2022/12/10 09:28:45;;;;;;;133.38;44.97;;;1.30;99.90;;;;;;5075238;28;20164;-77
2022/12/10 09:31:12;;;;;;;132.77;42.47;;;1.30;99.90;;;;;;5074994;28;20172;-77
2022/12/10 09:33:39;;;;;;;144.65;41.95;;;1.40;99.90;;;;;;5075271;28;20160;-78
2022/12/10 09:36:09;;;;;;;144.82;45.40;;;1.50;99.90;;;;;;5075072;28;20225;-78
2022/12/10 09:38:37;;;;;;;139.32;45.10;;;1.40;99.90;;;;;;5075300;28;20160;-78
2022/12/10 09:41:10;;;;;;;133.40;41.10;;;1.40;99.90;;;;;;5074823;28;20240;-78
2022/12/10 09:43:56;;;;;;;128.32;42.50;;;1.50;99.90;;;;;;5075698;28;20622;-78
2022/12/10 09:46:31;;;;;;;136.73;40.45;;;1.50;99.90;;;;;;5073580;28;20187;-78
2022/12/10 09:49:34;;;;;;;135.02;44.67;;;1.50;99.90;;;;;;5075507;28;20147;-78
2022/12/10 09:52:04;;;;;;;145.25;41.22;;;1.40;99.90;;;;;;5074797;28;20262;-78
2022/12/10 09:54:33;;;;;;;143.30;43.60;;;1.60;99.90;;;;;;5075323;28;20164;-78
2022/12/10 09:57:00;;;;;;;140.50;47.92;;;1.60;99.90;;;;;;5075342;28;20645;-78
2022/12/10 09:59:43;;;;;;;137.52;45.20;;;1.50;99.90;;;;;;5074827;28;20263;-78
2022/12/10 10:02:31;;;;;;;128.50;41.05;;;1.40;99.90;;;;;;5075069;28;20218;-78
2022/12/10 10:05:22;;;;;;;138.35;44.53;;;1.50;99.90;;;;;;5075139;28;20641;-78
2022/12/10 10:08:00;;;;;;;132.52;39.00;;;1.40;99.90;;;;;;5063697;28;20203;-78
2022/12/10 10:10:29;;;;;;;131.48;41.25;;;1.30;99.90;;;;;;5074838;28;20249;-78
2022/12/10 10:13:12;;;;;;;140.48;45.05;;;1.30;99.90;;;;;;5074799;28;20164;-78
2022/12/10 10:15:41;;;;;;;136.10;42.92;;;1.30;99.90;;;;;;5074153;28;20162;-78
2022/12/10 10:18:22;;;;;;;132.60;38.67;;;1.40;99.90;;;;;;5074590;28;20172;-78
2022/12/10 10:20:48;;;;;;;146.35;42.88;;;1.40;99.90;;;;;;5074587;28;20187;-78
2022/12/10 10:23:15;;;;;;;146.13;41.92;;;1.50;99.90;;;;;;5074679;28;20682;-78
2022/12/10 10:25:42;;;;;;;132.85;42.28;;;1.50;99.90;;;;;;5074593;28;20253;-78
2022/12/10 10:28:12;;;;;;;139.05;44.20;;;1.50;99.90;;;;;;5074736;28;20199;-78
2022/12/10 10:30:42;;;;;;;134.40;42.83;;;1.60;99.90;;;;;;5074673;28;20176;-78
2022/12/10 10:33:11;;;;;;;134.65;43.63;;;1.70;99.90;;;;;;5072949;28;20182;-78
2022/12/10 10:35:56;;;;;;;130.02;40.08;;;1.70;99.90;;;;;;5074220;28;20179;-78
2022/12/10 10:38:28;;;;;;;128.80;36.03;;;1.80;99.90;;;;;;5074362;28;20239;-78
2022/12/10 10:41:04;;;;;;;131.02;34.53;;;1.70;99.90;;;;;;5073879;28;20219;-78
2022/12/10 10:43:44;;;;;;;138.20;37.72;;;1.80;99.90;;;;;;5074264;28;20173;-78
2022/12/10 10:46:16;;;;;;;146.13;36.65;;;1.80;99.90;;;;;;5074417;28;20647;-78
2022/12/10 10:48:42;;;;;;;142.02;39.00;;;1.70;99.90;;;;;;5073898;28;20171;-78
2022/12/10 10:51:23;;;;;;;126.80;37.47;;;1.80;99.90;;;;;;5072702;28;20215;-78
2022/12/10 10:53:55;;;;;;;142.93;38.40;;;1.80;99.90;;;;;;5072822;28;20163;-78
2022/12/10 10:56:41;;;;;;;137.65;35.95;;;1.70;99.90;;;;;;5074310;28;20175;-78
2022/12/10 10:59:27;;;;;;;132.52;39.78;;;1.80;99.90;;;;;;5072871;28;20668;-78
2022/12/10 11:01:55;;;;;;;133.60;33.30;;;1.90;99.90;;;;;;5074098;28;20188;-78
2022/12/10 11:04:31;;;;;;;126.43;33.90;;;1.90;99.90;;;;;;5073881;28;20657;-78
2022/12/10 11:07:01;;;;;;;129.90;30.90;;;1.90;99.90;;;;;;5074180;28;20209;-78
2022/12/10 11:12:06;;;;;;;126.45;33.03;;;1.90;99.90;;;;;;5095180;28;20744;-82
2022/12/10 11:14:45;;;;;;;135.13;31.52;;;2.00;99.90;;;;;;5097943;28;20190;-82
2022/12/10 11:17:11;;;;;;;130.60;30.73;;;1.90;99.90;;;;;;5097781;28;20157;-81
2022/12/10 11:19:58;;;;;;;125.33;34.23;;;1.80;99.90;;;;;;5098016;28;20218;-82
2022/12/10 11:22:33;;;;;;;133.30;33.80;;;1.80;99.90;;;;;;5097830;28;20155;-81
2022/12/10 11:25:00;;;;;;;133.82;31.20;;;1.70;99.90;;;;;;5097779;28;20701;-82
2022/12/10 11:27:43;;;;;;;124.07;32.13;;;1.60;99.90;;;;;;5099258;28;20155;-81
2022/12/10 11:30:14;;;;;;;125.75;34.22;;;1.50;99.90;;;;;;5101706;28;20186;-81
2022/12/10 11:33:08;;;;;;;119.30;30.33;;;1.50;99.90;;;;;;5102454;28;20148;-81
2022/12/10 11:35:47;;;;;;;129.55;30.92;;;1.50;99.90;;;;;;5101628;28;20147;-81
2022/12/10 11:38:13;;;;;;;120.38;28.10;;;1.60;99.90;;;;;;5101488;28;20522;-81
2022/12/10 11:40:52;;;;;;;129.80;33.37;;;1.60;99.90;;;;;;5101564;28;20236;-81
2022/12/10 11:43:37;;;;;;;133.07;32.10;;;1.70;99.90;;;;;;5101461;28;20167;-81
2022/12/10 11:46:11;;;;;;;134.75;34.78;;;1.60;99.90;;;;;;5100892;28;20707;-81
2022/12/10 11:49:09;;;;;;;124.15;32.38;;;1.70;99.90;;;;;;5101226;28;20516;-81
2022/12/10 11:51:44;;;;;;;134.77;30.13;;;1.80;99.90;;;;;;5100745;28;20183;-81
2022/12/10 11:54:18;;;;;;;122.13;29.20;;;1.70;99.90;;;;;;5100766;28;20202;-81
2022/12/10 11:56:50;;;;;;;123.38;29.73;;;1.70;99.90;;;;;;5100789;28;20326;-81
2022/12/10 11:59:43;;;;;;;119.15;30.60;;;1.80;99.90;;;;;;5100695;28;20143;-81
2022/12/10 12:02:33;;;;;;;129.48;31.75;;;1.60;99.90;;;;;;5101098;28;20208;-81
2022/12/10 12:05:41;;;;;;;135.23;31.75;;;1.70;99.90;;;;;;5099817;28;20194;-81
2022/12/10 12:08:41;;;;;;;127.03;33.38;;;1.80;99.90;;;;;;5111225;28;20175;-81
2022/12/10 12:11:37;;;;;;;119.65;29.25;;;1.90;99.90;;;;;;5101044;28;20194;-81
2022/12/10 12:14:21;;;;;;;124.20;30.13;;;1.90;99.90;;;;;;5101152;28;20155;-81
2022/12/10 12:16:59;;;;;;;121.43;28.27;;;1.90;99.90;;;;;;5099621;28;20167;-81
2022/12/10 12:19:39;;;;;;;118.47;28.27;;;2.00;99.90;;;;;;5101131;28;20162;-81
2022/12/10 12:22:15;;;;;;;120.32;29.20;;;1.90;99.90;;;;;;5099266;28;20203;-81
2022/12/10 12:24:46;;;;;;;124.50;28.20;;;1.80;99.90;;;;;;5100595;28;20178;-80
2022/12/10 12:27:26;;;;;;;133.80;29.75;;;1.90;99.90;;;;;;5100175;28;20210;-80
2022/12/10 12:29:59;;;;;;;116.78;29.27;;;2.10;99.90;;;;;;5099274;28;20167;-81
2022/12/10 12:32:54;;;;;;;108.75;23.45;;;2.20;99.90;;;;;;5100696;28;20154;-80
2022/12/10 12:35:41;;;;;;;105.55;23.23;;;2.20;99.90;;;;;;5089619;28;20179;-80
2022/12/10 12:38:26;;;;;;;121.00;26.60;;;2.40;99.90;;;;;;5098788;28;20167;-80
2022/12/10 12:41:13;;;;;;;114.97;23.75;;;2.30;99.90;;;;;;5099259;28;20187;-82
2022/12/10 12:44:09;;;;;;;117.60;25.90;;;2.20;99.90;;;;;;5100739;28;20217;-81
2022/12/10 12:46:47;;;;;;;115.32;26.10;;;2.40;99.90;;;;;;5100276;28;20595;-82
2022/12/10 12:49:15;;;;;;;111.70;24.73;;;2.40;99.90;;;;;;5100868;28;20185;-82
2022/12/10 12:51:52;;;;;;;106.47;25.65;;;2.40;99.90;;;;;;5099678;28;20232;-82
2022/12/10 12:54:18;;;;;;;113.53;25.48;;;2.30;99.90;;;;;;5099764;28;20238;-82
2022/12/10 12:57:07;;;;;;;116.03;27.43;;;2.30;99.90;;;;;;5099589;28;20186;-82